createdAt,value
2023-03-22T00:01:19.871Z,1.47
2023-03-22T00:03:47.039Z,1.20
2023-03-22T00:06:13.556Z,1.67
2023-03-22T00:08:40.305Z,1.47
2023-03-22T00:11:07.224Z,1.33
2023-03-22T00:13:35.602Z,1.37
2023-03-22T00:16:02.938Z,1.80
2023-03-22T00:18:29.664Z,1.37
2023-03-22T00:20:57.189Z,1.30
2023-03-22T00:23:24.267Z,1.37
2023-03-22T00:25:50.717Z,1.63
2023-03-22T00:28:17.392Z,1.43
2023-03-22T00:30:50.618Z,1.40
2023-03-22T00:33:18.013Z,1.23
2023-03-22T00:35:54.666Z,1.40
2023-03-22T00:38:27.254Z,1.57
2023-03-22T00:41:04.445Z,1.43
2023-03-22T00:43:30.715Z,1.77
2023-03-22T00:45:57.043Z,1.37
2023-03-22T00:48:23.744Z,1.33
2023-03-22T00:50:50.138Z,1.97
2023-03-22T00:53:16.881Z,1.50
2023-03-22T00:55:43.200Z,2.17
2023-03-22T00:58:09.663Z,1.30
2023-03-22T01:00:35.982Z,1.37
2023-03-22T01:03:04.826Z,1.20
2023-03-22T01:05:33.165Z,2.07
2023-03-22T01:08:08.305Z,2.17
2023-03-22T01:10:35.557Z,1.73
2023-03-22T01:13:01.991Z,2.23
2023-03-22T01:15:28.331Z,2.27
2023-03-22T01:17:55.122Z,2.57
2023-03-22T01:20:22.122Z,1.80
2023-03-22T01:22:48.569Z,1.83
2023-03-22T01:25:14.932Z,1.80
2023-03-22T01:27:41.272Z,1.80
2023-03-22T01:30:07.974Z,2.03
2023-03-22T01:32:35.640Z,1.90
2023-03-22T01:35:01.906Z,2.20
2023-03-22T01:37:28.315Z,2.57
2023-03-22T01:39:55.094Z,1.60
2023-03-22T01:42:22.464Z,1.70
2023-03-22T01:45:07.621Z,1.80
2023-03-22T01:47:34.407Z,2.23
2023-03-22T01:50:00.706Z,2.00
2023-03-22T01:52:27.271Z,2.30
2023-03-22T01:54:54.243Z,2.07
2023-03-22T01:57:21.061Z,2.10
2023-03-22T01:59:47.947Z,2.10
2023-03-22T02:02:19.158Z,1.90
2023-03-22T02:04:50.523Z,2.50
2023-03-22T02:07:25.941Z,2.13
2023-03-22T02:09:54.524Z,2.27
2023-03-22T02:12:20.878Z,1.77
2023-03-22T02:14:59.372Z,2.90
2023-03-22T02:17:28.689Z,2.17
2023-03-22T02:19:58.959Z,1.73
2023-03-22T02:22:40.604Z,2.10
2023-03-22T02:25:06.896Z,1.57
2023-03-22T02:27:52.048Z,2.50
2023-03-22T02:30:37.627Z,2.20
2023-03-22T02:33:17.066Z,1.70
2023-03-22T02:35:54.363Z,2.70
2023-03-22T02:38:42.359Z,2.93
2023-03-22T02:41:08.678Z,2.70
2023-03-22T02:43:38.580Z,2.00
2023-03-22T02:46:15.978Z,2.10
2023-03-22T02:48:49.511Z,2.37
2023-03-22T02:51:21.398Z,2.80
2023-03-22T02:53:49.609Z,2.90
2023-03-22T02:56:24.470Z,2.70
2023-03-22T02:58:53.230Z,3.90
2023-03-22T03:01:27.529Z,3.60
2023-03-22T03:03:56.457Z,3.70
2023-03-22T03:06:25.679Z,3.53
2023-03-22T03:08:53.362Z,3.47
2023-03-22T03:11:20.119Z,3.50
2023-03-22T03:13:48.055Z,3.40
2023-03-22T03:16:17.321Z,3.67
2023-03-22T03:18:46.652Z,4.77
2023-03-22T03:21:32.695Z,4.07
2023-03-22T03:24:08.250Z,3.60
2023-03-22T03:26:34.511Z,3.27
2023-03-22T03:29:00.778Z,3.50
2023-03-22T03:31:45.414Z,3.23
2023-03-22T03:34:30.632Z,3.40
2023-03-22T03:37:00.206Z,3.67
2023-03-22T03:39:28.362Z,3.27
2023-03-22T03:41:55.152Z,4.17
2023-03-22T03:44:21.766Z,3.63
2023-03-22T03:46:48.954Z,3.37
2023-03-22T03:49:16.414Z,3.63
2023-03-22T03:51:47.313Z,3.47
2023-03-22T03:54:13.719Z,3.50
2023-03-22T03:56:40.126Z,3.70
2023-03-22T03:59:08.225Z,4.43
2023-03-22T04:01:35.719Z,4.10
2023-03-22T04:04:02.262Z,3.83
2023-03-22T04:06:29.006Z,3.97
2023-03-22T04:08:56.677Z,3.70
2023-03-22T04:11:23.063Z,3.83
2023-03-22T04:13:49.380Z,4.10
2023-03-22T04:16:15.743Z,4.30
2023-03-22T04:18:42.084Z,3.77
2023-03-22T04:21:08.481Z,4.33
2023-03-22T04:23:34.781Z,4.87
2023-03-22T04:26:01.078Z,4.27
2023-03-22T04:28:27.473Z,4.33
2023-03-22T04:30:53.803Z,3.87
2023-03-22T04:33:22.841Z,3.80
2023-03-22T04:35:50.442Z,4.30
2023-03-22T04:38:17.875Z,5.03
2023-03-22T04:40:46.798Z,4.87
2023-03-22T04:43:13.918Z,4.37
2023-03-22T04:45:42.103Z,4.10
2023-03-22T04:48:11.132Z,4.60
2023-03-22T04:50:40.192Z,4.87
2023-03-22T04:53:07.346Z,5.27
2023-03-22T04:55:34.757Z,4.43
2023-03-22T04:58:01.388Z,4.60
2023-03-22T05:00:30.133Z,4.17
2023-03-22T05:02:57.386Z,3.93
2023-03-22T05:05:23.703Z,3.60
2023-03-22T05:07:51.161Z,3.47
2023-03-22T05:10:17.495Z,3.63
2023-03-22T05:12:43.842Z,3.83
2023-03-22T05:15:10.332Z,3.70
2023-03-22T05:17:37.795Z,3.70
2023-03-22T05:20:09.462Z,3.37
2023-03-22T05:22:40.304Z,3.40
2023-03-22T05:25:08.215Z,3.60
2023-03-22T05:27:34.960Z,3.43
2023-03-22T05:30:02.086Z,3.60
2023-03-22T05:32:29.171Z,2.97
2023-03-22T05:34:55.984Z,2.93
2023-03-22T05:37:24.577Z,2.80
2023-03-22T05:39:51.235Z,2.70
2023-03-22T05:42:17.551Z,3.17
2023-03-22T05:44:43.982Z,2.67
2023-03-22T05:47:11.392Z,2.53
2023-03-22T05:49:38.133Z,2.70
2023-03-22T05:52:05.919Z,2.70
2023-03-22T05:54:32.510Z,3.27
2023-03-22T05:56:58.805Z,2.60
2023-03-22T05:59:25.310Z,2.27
2023-03-22T06:01:51.692Z,2.80
2023-03-22T06:04:18.738Z,1.80
2023-03-22T06:06:45.390Z,2.50
2023-03-22T06:09:17.208Z,1.80
2023-03-22T06:11:43.878Z,2.17
2023-03-22T06:14:10.288Z,1.70
2023-03-22T06:16:37.745Z,2.20
2023-03-22T06:19:04.292Z,1.97
2023-03-22T06:21:30.612Z,1.70
2023-03-22T06:23:56.946Z,2.00
2023-03-22T06:26:23.262Z,1.47
2023-03-22T06:28:49.568Z,1.90
2023-03-22T06:31:16.229Z,1.87
2023-03-22T06:33:42.649Z,1.70
2023-03-22T06:36:09.258Z,2.10
2023-03-22T06:38:35.657Z,1.70
2023-03-22T06:41:02.031Z,1.90
2023-03-22T06:43:28.571Z,2.03
2023-03-22T06:45:57.241Z,1.80
2023-03-22T06:48:23.857Z,1.60
2023-03-22T06:50:50.414Z,1.57
2023-03-22T06:53:16.866Z,2.57
2023-03-22T06:55:43.212Z,1.50
2023-03-22T06:58:09.608Z,1.93
2023-03-22T07:00:36.410Z,1.60
2023-03-22T07:03:03.600Z,1.50
2023-03-22T07:05:30.060Z,1.30
2023-03-22T07:07:56.407Z,1.50
2023-03-22T07:10:22.731Z,1.33
2023-03-22T07:12:49.137Z,1.50
2023-03-22T07:15:17.368Z,1.33
2023-03-22T07:17:43.655Z,2.53
2023-03-22T07:20:10.263Z,1.13
2023-03-22T07:22:36.560Z,1.83
2023-03-22T07:25:02.989Z,1.70
2023-03-22T07:27:29.300Z,1.60
2023-03-22T07:29:55.647Z,1.80
2023-03-22T07:32:22.054Z,1.50
2023-03-22T07:34:48.377Z,1.60
2023-03-22T07:37:15.008Z,1.70
2023-03-22T07:39:41.330Z,1.70
2023-03-22T07:42:07.700Z,1.50
2023-03-22T07:44:34.118Z,2.00
2023-03-22T07:47:00.733Z,2.30
2023-03-22T07:49:27.585Z,1.63
2023-03-22T07:51:53.909Z,1.50
2023-03-22T07:54:33.070Z,1.90
2023-03-22T07:57:01.006Z,1.97
2023-03-22T07:59:27.415Z,1.57
2023-03-22T08:01:53.925Z,1.70
2023-03-22T08:04:22.413Z,1.50
2023-03-22T08:06:49.807Z,1.57
2023-03-22T08:09:16.296Z,1.73
2023-03-22T08:11:42.697Z,1.77
2023-03-22T08:14:09.080Z,1.97
2023-03-22T08:16:35.586Z,1.80
2023-03-22T08:19:01.971Z,1.17
2023-03-22T08:21:28.369Z,1.53
2023-03-22T08:23:54.760Z,3.07
2023-03-22T08:26:22.107Z,2.77
2023-03-22T08:28:48.542Z,1.27
2023-03-22T08:31:17.021Z,1.73
2023-03-22T08:33:45.082Z,1.90
2023-03-22T08:36:14.416Z,1.90
2023-03-22T08:38:42.466Z,1.63
2023-03-22T08:41:08.948Z,2.00
2023-03-22T08:43:35.251Z,1.80
2023-03-22T08:46:01.763Z,2.07
2023-03-22T08:48:30.620Z,2.03
2023-03-22T08:50:57.792Z,2.17
2023-03-22T08:53:24.210Z,1.87
2023-03-22T08:55:50.929Z,1.60
2023-03-22T08:58:19.963Z,2.90
2023-03-22T09:00:49.530Z,2.00
2023-03-22T09:03:16.439Z,2.33
2023-03-22T09:05:44.947Z,2.37
2023-03-22T09:08:18.530Z,2.00
2023-03-22T09:10:47.948Z,2.33
2023-03-22T09:13:16.470Z,1.83
2023-03-22T09:15:44.817Z,2.00
2023-03-22T09:18:11.773Z,1.80
2023-03-22T09:20:38.553Z,2.00
2023-03-22T09:23:05.279Z,2.43
2023-03-22T09:25:31.622Z,2.03
2023-03-22T09:27:59.048Z,1.70
2023-03-22T09:30:25.451Z,2.10
2023-03-22T09:32:51.908Z,2.37
2023-03-22T09:35:18.353Z,1.60
2023-03-22T09:37:45.645Z,1.73
2023-03-22T09:40:12.933Z,2.00
2023-03-22T09:42:46.421Z,1.43
2023-03-22T09:45:18.528Z,2.33
2023-03-22T09:47:48.154Z,1.70
2023-03-22T09:50:26.228Z,2.17
2023-03-22T09:52:53.404Z,1.97
2023-03-22T09:55:20.906Z,2.07
2023-03-22T09:57:54.876Z,2.37
2023-03-22T10:00:21.512Z,1.87
2023-03-22T10:03:01.980Z,2.23
2023-03-22T10:05:34.519Z,1.87
2023-03-22T10:08:09.706Z,2.17
2023-03-22T10:10:36.724Z,2.73
2023-03-22T10:13:16.429Z,2.07
2023-03-22T10:15:45.973Z,2.80
2023-03-22T10:18:16.214Z,2.27
2023-03-22T10:20:55.492Z,2.50
2023-03-22T10:23:28.649Z,2.00
2023-03-22T10:25:55.932Z,2.30
2023-03-22T10:28:25.180Z,1.97
2023-03-22T10:30:55.999Z,2.33
2023-03-22T10:33:28.965Z,2.50
2023-03-22T10:35:55.912Z,1.47
2023-03-22T10:38:24.160Z,2.87
2023-03-22T10:40:51.560Z,1.67
2023-03-22T10:43:23.912Z,2.13
2023-03-22T10:45:52.118Z,1.93
2023-03-22T10:48:29.500Z,2.13
2023-03-22T10:50:56.813Z,2.27
2023-03-22T10:53:37.056Z,1.90
2023-03-22T10:56:05.176Z,2.37
2023-03-22T10:58:32.806Z,1.90
2023-03-22T11:01:03.022Z,2.50
2023-03-22T11:03:31.799Z,2.00
2023-03-22T11:06:02.723Z,2.10
2023-03-22T11:08:29.016Z,1.73
2023-03-22T11:10:59.303Z,2.40
2023-03-22T11:13:25.992Z,2.27
2023-03-22T11:15:55.585Z,2.40
2023-03-22T11:18:22.644Z,2.47
2023-03-22T11:20:54.178Z,2.37
2023-03-22T11:23:21.602Z,2.93
2023-03-22T11:25:49.673Z,2.20
2023-03-22T11:28:16.912Z,2.03
2023-03-22T11:30:58.002Z,2.43
2023-03-22T11:33:25.990Z,2.10
2023-03-22T11:35:56.789Z,2.83
2023-03-22T11:38:40.488Z,2.23
2023-03-22T11:41:23.560Z,2.40
2023-03-22T11:43:54.600Z,2.47
2023-03-22T11:46:21.775Z,2.30
2023-03-22T11:48:50.107Z,2.57
2023-03-22T11:51:18.039Z,2.73
2023-03-22T11:53:48.481Z,1.90
2023-03-22T11:56:21.883Z,2.90
2023-03-22T11:58:53.944Z,2.50
2023-03-22T12:01:27.016Z,2.60
2023-03-22T12:03:55.808Z,2.40
2023-03-22T12:06:27.828Z,2.60
2023-03-22T12:08:56.777Z,2.40
2023-03-22T12:11:27.479Z,2.00
2023-03-22T12:13:57.488Z,2.87
2023-03-22T12:16:29.294Z,2.87
2023-03-22T12:19:19.517Z,2.47
2023-03-22T12:21:46.262Z,2.70
2023-03-22T12:24:21.090Z,2.63
2023-03-22T12:26:47.612Z,2.80
2023-03-22T12:29:16.695Z,2.77
2023-03-22T12:31:46.291Z,2.57
2023-03-22T12:34:15.346Z,3.00
2023-03-22T12:36:45.632Z,3.43
2023-03-22T12:39:41.469Z,2.50
2023-03-22T12:42:21.539Z,2.80
2023-03-22T12:45:02.638Z,2.70
2023-03-22T12:47:38.384Z,2.20
2023-03-22T12:50:16.721Z,2.23
2023-03-22T12:52:50.636Z,3.10
2023-03-22T12:55:29.073Z,2.07
2023-03-22T12:57:55.745Z,2.37
2023-03-22T13:00:27.431Z,2.63
2023-03-22T13:03:23.371Z,2.10
2023-03-22T13:05:58.765Z,3.13
2023-03-22T13:08:25.505Z,3.07
2023-03-22T13:11:02.189Z,2.83
2023-03-22T13:13:28.553Z,2.70
2023-03-22T13:16:10.973Z,3.17
2023-03-22T13:18:40.662Z,3.03
2023-03-22T13:21:14.001Z,2.20
2023-03-22T13:23:53.628Z,3.37
2023-03-22T13:26:21.888Z,2.73
2023-03-22T13:28:56.487Z,2.60
2023-03-22T13:31:40.867Z,3.17
2023-03-22T13:34:15.652Z,2.00
2023-03-22T13:36:48.348Z,2.27
2023-03-22T13:39:15.553Z,2.17
2023-03-22T13:41:43.463Z,2.87
2023-03-22T13:44:20.853Z,2.47
2023-03-22T13:46:50.172Z,2.20
2023-03-22T13:49:22.771Z,2.30
2023-03-22T13:51:49.552Z,2.17
2023-03-22T13:54:18.957Z,2.90
2023-03-22T13:57:00.837Z,2.30
2023-03-22T13:59:27.457Z,2.87
2023-03-22T14:01:57.437Z,2.50
2023-03-22T14:04:28.739Z,2.63
2023-03-22T14:06:57.375Z,2.57
2023-03-22T14:09:34.678Z,2.90
2023-03-22T14:12:07.175Z,2.50
2023-03-22T14:14:36.560Z,3.00
2023-03-22T14:17:13.130Z,3.10
2023-03-22T14:19:41.011Z,3.03
